createdAt,value
2022-09-14T00:01:50.074Z,81.50
2022-09-14T00:04:20.902Z,87.75
2022-09-14T00:06:50.699Z,91.00
2022-09-14T00:09:22.110Z,87.25
2022-09-14T00:11:52.538Z,82.50
2022-09-14T00:14:21.896Z,80.75
2022-09-14T00:16:52.289Z,82.75
2022-09-14T00:19:23.437Z,83.50
2022-09-14T00:21:57.065Z,80.50
2022-09-14T00:24:27.649Z,79.25
2022-09-14T00:26:56.941Z,79.00
2022-09-14T00:29:26.526Z,76.50
2022-09-14T00:31:55.986Z,83.25
2022-09-14T00:34:25.370Z,84.75
2022-09-14T00:36:54.701Z,81.25
2022-09-14T00:39:25.402Z,74.00
2022-09-14T00:41:55.936Z,75.00
2022-09-14T00:44:25.587Z,80.25
2022-09-14T00:46:56.693Z,81.75
2022-09-14T00:49:32.213Z,79.00
2022-09-14T00:52:11.342Z,76.25
2022-09-14T00:54:43.240Z,81.25
2022-09-14T00:57:13.170Z,78.50
2022-09-14T00:59:43.883Z,81.25
2022-09-14T01:02:16.327Z,73.00
2022-09-14T01:04:46.412Z,76.75
2022-09-14T01:07:34.031Z,78.75
2022-09-14T01:10:09.867Z,78.25
2022-09-14T01:12:57.677Z,75.00
2022-09-14T01:15:37.254Z,75.25
2022-09-14T01:18:17.594Z,71.50
2022-09-14T01:20:53.375Z,73.25
2022-09-14T01:23:44.559Z,74.75
2022-09-14T01:26:32.932Z,74.25
2022-09-14T01:29:10.889Z,70.25
2022-09-14T01:31:47.911Z,67.50
2022-09-14T01:34:20.818Z,69.00
2022-09-14T01:36:54.589Z,70.75
2022-09-14T01:39:24.720Z,65.50
2022-09-14T01:41:56.273Z,64.00
2022-09-14T01:44:38.518Z,59.00
2022-09-14T01:47:17.708Z,59.25
2022-09-14T01:49:55.881Z,55.50
2022-09-14T01:52:27.354Z,56.00
2022-09-14T01:55:00.561Z,55.50
2022-09-14T01:57:35.395Z,58.25
2022-09-14T02:00:08.140Z,58.75
2022-09-14T02:02:41.116Z,53.75
2022-09-14T02:05:15.418Z,58.50
2022-09-14T02:07:45.029Z,58.50
2022-09-14T02:10:19.243Z,55.50
2022-09-14T02:12:48.882Z,60.00
2022-09-14T02:15:25.409Z,52.25
2022-09-14T02:17:56.104Z,52.25
2022-09-14T02:20:48.402Z,56.50
2022-09-14T02:23:18.224Z,52.50
2022-09-14T02:25:48.410Z,57.50
2022-09-14T02:28:18.065Z,59.00
2022-09-14T02:31:02.666Z,55.75
2022-09-14T02:33:54.436Z,58.25
2022-09-14T02:36:44.898Z,52.00
2022-09-14T02:39:14.825Z,53.50
2022-09-14T02:41:50.641Z,52.50
2022-09-14T02:44:26.006Z,52.25
2022-09-14T02:46:55.354Z,52.25
2022-09-14T02:49:30.907Z,50.75
2022-09-14T02:52:13.919Z,48.75
2022-09-14T02:54:56.283Z,50.00
2022-09-14T02:57:25.572Z,50.50
2022-09-14T02:59:58.941Z,47.25
2022-09-14T03:02:28.577Z,46.25
2022-09-14T03:04:57.923Z,46.25
2022-09-14T03:07:27.718Z,45.75
2022-09-14T03:09:57.001Z,42.00
2022-09-14T03:12:26.606Z,42.00
2022-09-14T03:14:55.861Z,39.50
2022-09-14T03:17:25.309Z,38.50
2022-09-14T03:19:57.123Z,37.75
2022-09-14T03:22:26.623Z,41.00
2022-09-14T03:24:56.526Z,44.00
2022-09-14T03:27:25.933Z,40.50
2022-09-14T03:29:55.288Z,41.75
2022-09-14T03:32:24.877Z,37.25
2022-09-14T03:34:55.702Z,38.00
2022-09-14T03:37:26.674Z,37.75
2022-09-14T03:39:56.773Z,36.75
2022-09-14T03:42:26.193Z,38.00
2022-09-14T03:44:55.505Z,37.50
2022-09-14T03:47:24.759Z,38.00
2022-09-14T03:49:54.305Z,34.00
2022-09-14T03:52:23.821Z,37.75
2022-09-14T03:54:53.504Z,38.75
2022-09-14T03:57:23.152Z,35.25
2022-09-14T03:59:52.484Z,36.50
2022-09-14T04:02:22.251Z,34.00
2022-09-14T04:04:52.173Z,36.25
2022-09-14T04:07:21.633Z,35.00
2022-09-14T04:09:51.070Z,36.00
2022-09-14T04:12:20.374Z,35.25
2022-09-14T04:14:49.802Z,35.50
2022-09-14T04:17:19.175Z,35.50
2022-09-14T04:19:48.583Z,31.25
2022-09-14T04:22:18.017Z,34.25
2022-09-14T04:24:47.355Z,33.25
2022-09-14T04:27:17.655Z,33.25
2022-09-14T04:29:46.969Z,33.50
2022-09-14T04:32:16.587Z,34.75
2022-09-14T04:34:45.887Z,32.00
2022-09-14T04:37:15.138Z,30.75
2022-09-14T04:39:45.129Z,29.50
2022-09-14T04:42:14.631Z,32.00
2022-09-14T04:44:44.009Z,32.75
2022-09-14T04:47:13.360Z,34.00
2022-09-14T04:49:43.430Z,31.50
2022-09-14T04:52:13.661Z,29.50
2022-09-14T04:54:42.986Z,31.25
2022-09-14T04:57:12.344Z,29.25
2022-09-14T04:59:41.703Z,31.75
2022-09-14T05:02:11.066Z,29.75
2022-09-14T05:04:41.401Z,31.25
2022-09-14T05:07:10.689Z,30.75
2022-09-14T05:09:40.272Z,31.25
2022-09-14T05:12:09.895Z,30.50
2022-09-14T05:14:39.203Z,29.00
2022-09-14T05:17:08.465Z,28.75
2022-09-14T05:19:38.838Z,29.75
2022-09-14T05:22:08.181Z,29.25
2022-09-14T05:24:37.526Z,30.00
2022-09-14T05:27:06.907Z,31.25
2022-09-14T05:29:42.374Z,27.50
2022-09-14T05:32:12.424Z,27.75
2022-09-14T05:34:42.110Z,29.25
2022-09-14T05:37:14.552Z,26.00
2022-09-14T05:39:44.227Z,27.25
2022-09-14T05:42:13.749Z,28.75
2022-09-14T05:44:43.141Z,31.25
2022-09-14T05:47:16.230Z,28.75
2022-09-14T05:49:52.146Z,28.25
2022-09-14T05:52:25.644Z,27.50
2022-09-14T05:54:58.859Z,27.50
2022-09-14T05:57:28.381Z,28.25
2022-09-14T06:00:01.136Z,30.75
2022-09-14T06:02:47.407Z,29.00
2022-09-14T06:05:23.957Z,29.00
2022-09-14T06:07:57.211Z,28.75
2022-09-14T06:10:29.916Z,28.00
2022-09-14T06:13:01.284Z,29.00
2022-09-14T06:15:34.611Z,30.25
2022-09-14T06:18:04.680Z,28.25
2022-09-14T06:20:35.314Z,26.50
2022-09-14T06:23:08.218Z,27.50
2022-09-14T06:25:38.207Z,30.50
2022-09-14T06:28:08.113Z,30.25
2022-09-14T06:30:37.656Z,29.00
2022-09-14T06:33:07.321Z,31.25
2022-09-14T06:35:36.923Z,29.50
2022-09-14T06:38:06.392Z,29.25
2022-09-14T06:40:36.166Z,30.75
2022-09-14T06:43:06.937Z,31.00
2022-09-14T06:45:40.975Z,30.50
2022-09-14T06:48:13.240Z,28.25
2022-09-14T06:50:43.174Z,29.00
2022-09-14T06:53:12.677Z,26.75
2022-09-14T06:55:45.961Z,29.00
2022-09-14T06:58:17.384Z,30.75
2022-09-14T07:00:47.183Z,28.00
2022-09-14T07:03:16.731Z,28.50
2022-09-14T07:05:49.235Z,28.25
2022-09-14T07:08:19.392Z,29.25
2022-09-14T07:11:00.155Z,31.00
2022-09-14T07:13:34.022Z,27.75
2022-09-14T07:16:05.892Z,32.00
2022-09-14T07:18:37.058Z,30.25
2022-09-14T07:21:08.404Z,27.75
2022-09-14T07:23:39.883Z,29.25
2022-09-14T07:26:29.614Z,26.25
2022-09-14T07:29:00.923Z,27.25
2022-09-14T07:31:38.512Z,27.25
2022-09-14T07:34:14.175Z,28.75
2022-09-14T07:36:44.929Z,28.75
2022-09-14T07:39:16.566Z,29.25
2022-09-14T07:41:46.701Z,29.50
2022-09-14T07:44:17.962Z,29.75
2022-09-14T07:46:48.722Z,29.50
2022-09-14T07:49:23.388Z,26.00
2022-09-14T07:51:55.631Z,27.50
2022-09-14T07:54:26.432Z,28.00
2022-09-14T07:56:57.044Z,28.25
2022-09-14T07:59:41.777Z,28.00
2022-09-14T08:02:13.067Z,29.50
2022-09-14T08:04:42.273Z,29.25
2022-09-14T08:07:11.426Z,27.75
2022-09-14T08:09:40.905Z,28.25
2022-09-14T08:12:10.019Z,25.25
2022-09-14T08:14:39.409Z,26.75
2022-09-14T08:17:08.864Z,23.00
2022-09-14T08:19:38.557Z,25.50
2022-09-14T08:22:08.000Z,25.75
2022-09-14T08:24:40.216Z,24.00
2022-09-14T08:27:09.324Z,24.75
2022-09-14T08:29:42.082Z,26.50
2022-09-14T08:32:14.065Z,27.25
2022-09-14T08:34:46.650Z,25.00
2022-09-14T08:37:16.347Z,25.75
2022-09-14T08:39:51.525Z,25.25
2022-09-14T08:42:24.236Z,23.50
2022-09-14T08:45:00.602Z,25.25
2022-09-14T08:47:37.456Z,27.00
2022-09-14T08:50:09.912Z,23.75
2022-09-14T08:52:40.740Z,27.75
2022-09-14T08:55:32.674Z,28.50
2022-09-14T08:58:06.382Z,24.25
2022-09-14T09:00:47.581Z,26.00
2022-09-14T09:03:35.223Z,25.75
2022-09-14T09:06:15.137Z,24.75
2022-09-14T09:08:45.092Z,24.75
2022-09-14T09:11:16.907Z,28.25
2022-09-14T09:13:47.849Z,25.50
2022-09-14T09:16:19.514Z,25.25
2022-09-14T09:18:53.940Z,27.25
2022-09-14T09:21:42.399Z,27.75
2022-09-14T09:24:31.073Z,25.75
2022-09-14T09:27:02.470Z,23.50
2022-09-14T09:29:34.464Z,25.50
2022-09-14T09:32:17.068Z,25.50
2022-09-14T09:34:55.485Z,26.25
2022-09-14T09:37:59.638Z,26.50
2022-09-14T09:40:43.481Z,27.25
2022-09-14T09:43:24.436Z,25.25
2022-09-14T09:46:07.337Z,25.50
2022-09-14T09:48:39.911Z,24.00
2022-09-14T09:51:14.247Z,23.00
2022-09-14T09:53:52.252Z,24.50
2022-09-14T09:56:24.526Z,25.25
2022-09-14T09:58:54.266Z,25.25
2022-09-14T10:01:31.321Z,26.25
2022-09-14T10:04:20.726Z,25.00
2022-09-14T10:06:51.810Z,24.25
2022-09-14T10:09:22.958Z,23.50
2022-09-14T10:12:02.779Z,25.25
2022-09-14T10:14:34.541Z,27.00
2022-09-14T10:17:08.498Z,27.25
2022-09-14T10:19:38.451Z,28.00
2022-09-14T10:22:24.232Z,26.25
2022-09-14T10:25:00.134Z,24.75
2022-09-14T10:27:37.713Z,23.75
2022-09-14T10:30:17.816Z,25.75
2022-09-14T10:32:51.672Z,23.50
2022-09-14T10:35:22.731Z,26.25
2022-09-14T10:38:01.660Z,24.50
2022-09-14T10:40:37.745Z,24.25
2022-09-14T10:43:13.770Z,24.00
2022-09-14T10:45:49.427Z,23.75
2022-09-14T10:48:37.289Z,24.25
2022-09-14T10:51:06.507Z,25.50
2022-09-14T10:53:44.103Z,23.25
2022-09-14T10:56:34.256Z,29.00
2022-09-14T10:59:03.906Z,24.00
2022-09-14T11:01:51.762Z,27.00
2022-09-14T11:04:36.614Z,29.25
2022-09-14T11:07:14.615Z,29.25
2022-09-14T11:09:50.932Z,31.50
2022-09-14T11:12:29.157Z,29.75
2022-09-14T11:14:58.466Z,29.25
2022-09-14T11:17:46.113Z,28.50
2022-09-14T11:20:27.276Z,30.75
2022-09-14T11:23:05.693Z,29.25
2022-09-14T11:25:47.451Z,30.75
2022-09-14T11:28:39.113Z,31.75
2022-09-14T11:31:08.620Z,39.00
2022-09-14T11:33:38.500Z,38.00
2022-09-14T11:36:17.736Z,35.00
2022-09-14T11:39:06.730Z,37.00
2022-09-14T11:41:51.895Z,33.25
2022-09-14T11:44:26.814Z,34.25
2022-09-14T11:47:00.806Z,31.25
2022-09-14T11:49:41.235Z,34.25
2022-09-14T11:52:17.664Z,31.75
2022-09-14T11:54:48.058Z,31.25
2022-09-14T11:57:22.037Z,33.50
2022-09-14T11:59:52.608Z,30.50
2022-09-14T12:02:25.160Z,30.75
2022-09-14T12:05:07.480Z,30.25
2022-09-14T12:07:49.174Z,30.25
2022-09-14T12:10:20.721Z,34.00
2022-09-14T12:12:53.309Z,33.25
2022-09-14T12:15:23.183Z,31.25
2022-09-14T12:17:56.634Z,32.25
2022-09-14T12:20:31.817Z,33.25
2022-09-14T12:23:19.562Z,33.75
2022-09-14T12:25:56.817Z,32.25
2022-09-14T12:28:32.358Z,33.50
2022-09-14T12:31:04.051Z,31.00
2022-09-14T12:33:36.314Z,31.25
2022-09-14T12:36:06.622Z,33.50
2022-09-14T12:38:39.433Z,32.75
2022-09-14T12:41:13.517Z,32.50
2022-09-14T12:43:43.285Z,31.25
2022-09-14T12:46:13.744Z,32.25
2022-09-14T12:48:49.234Z,31.00
2022-09-14T12:51:34.205Z,30.75
2022-09-14T12:54:10.005Z,33.25
2022-09-14T12:56:40.034Z,31.25
2022-09-14T12:59:11.826Z,32.50
2022-09-14T13:01:51.309Z,34.00
2022-09-14T13:04:23.798Z,31.50
2022-09-14T13:06:55.454Z,31.75
2022-09-14T13:09:26.371Z,32.75
2022-09-14T13:12:07.129Z,31.50
2022-09-14T13:14:41.054Z,32.00
2022-09-14T13:17:14.792Z,32.00
2022-09-14T13:19:45.291Z,33.50
2022-09-14T13:22:23.589Z,32.00
2022-09-14T13:24:54.304Z,35.75
2022-09-14T13:27:28.503Z,32.25
2022-09-14T13:30:08.187Z,34.75
2022-09-14T13:32:43.553Z,33.50
2022-09-14T13:35:22.420Z,34.50
2022-09-14T13:37:52.898Z,33.50
2022-09-14T13:40:27.592Z,34.00
2022-09-14T13:42:58.623Z,35.00
2022-09-14T13:45:30.205Z,33.00
2022-09-14T13:48:01.009Z,33.00
2022-09-14T13:50:31.195Z,35.75
2022-09-14T13:53:02.939Z,35.00
2022-09-14T13:55:35.013Z,36.50
2022-09-14T13:58:11.649Z,34.75
2022-09-14T14:00:54.263Z,34.50
2022-09-14T14:03:36.792Z,32.00
2022-09-14T14:06:28.047Z,33.75
2022-09-14T14:09:00.788Z,34.00
2022-09-14T14:11:34.665Z,37.00
2022-09-14T14:14:23.499Z,34.25
2022-09-14T14:17:13.783Z,34.50
2022-09-14T14:19:45.059Z,35.00
2022-09-14T14:22:18.198Z,35.75
2022-09-14T14:25:13.616Z,33.00
2022-09-14T14:27:44.567Z,34.00
2022-09-14T14:30:16.569Z,33.75
2022-09-14T14:32:51.452Z,36.00
2022-09-14T14:35:23.945Z,36.25
2022-09-14T14:37:54.588Z,35.00
2022-09-14T14:40:24.885Z,35.00
2022-09-14T14:42:55.694Z,34.00
2022-09-14T14:45:27.808Z,33.50
2022-09-14T14:48:00.434Z,34.50
2022-09-14T14:50:34.933Z,35.50
2022-09-14T14:53:10.715Z,32.00
2022-09-14T14:55:41.068Z,32.50
2022-09-14T14:58:16.321Z,33.75
2022-09-14T15:00:46.640Z,31.25
2022-09-14T15:03:17.245Z,31.00
2022-09-14T15:05:49.165Z,33.00
2022-09-14T15:08:21.698Z,30.25
2022-09-14T15:10:57.372Z,32.25
2022-09-14T15:13:27.796Z,33.75
2022-09-14T15:15:57.803Z,31.00
2022-09-14T15:18:30.838Z,26.00
2022-09-14T15:21:01.645Z,27.25
2022-09-14T15:23:32.035Z,28.50
2022-09-14T15:26:02.225Z,29.00
2022-09-14T15:28:32.732Z,29.75
2022-09-14T15:31:04.906Z,26.50
2022-09-14T15:33:38.375Z,28.75
2022-09-14T15:36:08.232Z,29.75
2022-09-14T15:38:40.230Z,32.25
2022-09-14T15:41:13.915Z,30.50
2022-09-14T15:43:46.225Z,26.00
2022-09-14T15:46:16.079Z,31.75
2022-09-14T15:48:45.921Z,28.75
2022-09-14T15:51:15.716Z,28.00
2022-09-14T15:53:47.381Z,28.25
2022-09-14T15:56:18.142Z,29.25
2022-09-14T15:58:48.377Z,25.00
2022-09-14T16:01:19.312Z,25.50
2022-09-14T16:03:49.260Z,25.75
2022-09-14T16:06:18.955Z,25.25
2022-09-14T16:08:48.648Z,26.25
2022-09-14T16:11:19.074Z,25.25
2022-09-14T16:13:48.847Z,24.50
2022-09-14T16:16:19.462Z,26.75
2022-09-14T16:18:52.666Z,28.00
2022-09-14T16:21:24.277Z,26.50
2022-09-14T16:23:57.353Z,26.25
2022-09-14T16:26:29.863Z,23.75
2022-09-14T16:29:00.111Z,29.00
2022-09-14T16:31:34.902Z,23.50
2022-09-14T16:34:07.432Z,24.75
2022-09-14T16:36:38.773Z,25.25
2022-09-14T16:39:11.576Z,29.25
2022-09-14T16:41:43.328Z,23.00
2022-09-14T16:44:17.798Z,28.50
2022-09-14T16:46:48.692Z,28.00
2022-09-14T16:49:19.734Z,25.75
2022-09-14T16:51:50.721Z,23.00
2022-09-14T16:54:21.606Z,26.50
2022-09-14T16:56:51.074Z,21.50
2022-09-14T16:59:22.940Z,22.75
2022-09-14T17:01:54.970Z,28.50
2022-09-14T17:04:25.551Z,22.25
2022-09-14T17:06:56.373Z,28.50
2022-09-14T17:09:29.040Z,19.50
2022-09-14T17:11:58.872Z,26.75
2022-09-14T17:14:30.336Z,25.50
2022-09-14T17:17:00.230Z,24.75
2022-09-14T17:19:29.676Z,24.75
2022-09-14T17:21:59.081Z,25.25
2022-09-14T17:24:29.402Z,23.75
2022-09-14T17:26:58.716Z,24.25
2022-09-14T17:29:28.102Z,22.25
2022-09-14T17:31:58.005Z,26.25
2022-09-14T17:34:27.381Z,26.50
2022-09-14T17:36:56.685Z,19.25
2022-09-14T17:39:27.008Z,22.75
2022-09-14T17:41:56.691Z,23.25
2022-09-14T17:44:27.513Z,25.25
2022-09-14T17:46:56.907Z,23.25
2022-09-14T17:49:29.222Z,22.00
2022-09-14T17:51:58.481Z,21.25
2022-09-14T17:54:28.058Z,21.50
2022-09-14T17:56:58.400Z,22.25
2022-09-14T17:59:28.604Z,24.00
2022-09-14T18:01:57.903Z,22.75
2022-09-14T18:04:27.236Z,21.75
2022-09-14T18:06:56.512Z,25.25
2022-09-14T18:09:26.154Z,21.50
2022-09-14T18:11:57.261Z,21.75
2022-09-14T18:14:27.040Z,27.00
2022-09-14T18:16:56.414Z,24.25
2022-09-14T18:19:26.848Z,26.00
2022-09-14T18:21:56.225Z,24.00
2022-09-14T18:24:25.547Z,20.75
2022-09-14T18:26:54.803Z,22.75
2022-09-14T18:29:24.879Z,26.25
2022-09-14T18:31:55.062Z,25.00
2022-09-14T18:34:28.051Z,22.25
2022-09-14T18:36:57.319Z,21.25
2022-09-14T18:39:26.651Z,23.75
2022-09-14T18:41:57.553Z,23.75
2022-09-14T18:44:26.843Z,22.75
2022-09-14T18:46:56.195Z,24.00
2022-09-14T18:49:25.732Z,20.00
2022-09-14T18:51:55.099Z,24.00
2022-09-14T18:54:27.579Z,22.50
2022-09-14T18:56:57.216Z,25.75
2022-09-14T18:59:26.887Z,21.25
2022-09-14T19:01:56.147Z,20.50
2022-09-14T19:04:26.943Z,24.50
2022-09-14T19:06:56.441Z,23.00
2022-09-14T19:09:25.829Z,22.00
2022-09-14T19:11:56.295Z,25.00
2022-09-14T19:14:25.765Z,22.25
2022-09-14T19:16:58.187Z,26.25
2022-09-14T19:19:27.522Z,24.25
2022-09-14T19:21:56.802Z,22.75
2022-09-14T19:24:28.854Z,23.50
2022-09-14T19:26:58.210Z,19.25
2022-09-14T19:29:28.973Z,18.00
2022-09-14T19:31:58.374Z,22.00
2022-09-14T19:34:28.898Z,25.75
2022-09-14T19:36:58.371Z,23.75
2022-09-14T19:39:28.238Z,22.75
2022-09-14T19:41:57.607Z,24.75
2022-09-14T19:44:26.859Z,22.00
2022-09-14T19:46:59.397Z,24.00
2022-09-14T19:49:28.682Z,21.25
2022-09-14T19:51:58.211Z,21.75
2022-09-14T19:54:27.490Z,24.25
2022-09-14T19:56:57.275Z,20.00
2022-09-14T19:59:26.688Z,22.25
2022-09-14T20:01:56.190Z,21.75
2022-09-14T20:04:25.741Z,22.25
2022-09-14T20:06:56.741Z,22.50
2022-09-14T20:09:26.086Z,21.50
2022-09-14T20:11:55.692Z,25.75
2022-09-14T20:14:25.714Z,21.50
2022-09-14T20:16:56.275Z,24.00
2022-09-14T20:19:27.920Z,26.25
2022-09-14T20:21:57.716Z,21.00
2022-09-14T20:24:28.562Z,24.25
2022-09-14T20:27:00.765Z,25.00
2022-09-14T20:29:32.392Z,24.50
2022-09-14T20:32:02.110Z,22.00
2022-09-14T20:34:32.417Z,21.75
2022-09-14T20:37:02.065Z,20.25
2022-09-14T20:39:31.784Z,25.50
2022-09-14T20:42:01.350Z,24.75
2022-09-14T20:44:30.599Z,23.25
2022-09-14T20:47:00.086Z,25.00
2022-09-14T20:49:29.533Z,22.75
2022-09-14T20:52:00.195Z,23.75
2022-09-14T20:54:29.621Z,24.25
2022-09-14T20:57:03.514Z,26.00
2022-09-14T20:59:33.854Z,22.00
2022-09-14T21:02:05.535Z,22.50
2022-09-14T21:04:36.562Z,25.00
2022-09-14T21:07:06.047Z,23.25
2022-09-14T21:09:36.661Z,21.50
2022-09-14T21:12:06.114Z,24.00
2022-09-14T21:14:35.401Z,24.50
2022-09-14T21:17:05.198Z,24.00
2022-09-14T21:19:34.477Z,22.50
2022-09-14T21:22:04.036Z,26.50
2022-09-14T21:24:33.529Z,21.25
2022-09-14T21:27:02.906Z,23.75
2022-09-14T21:29:32.420Z,26.00
2022-09-14T21:32:06.838Z,29.00
2022-09-14T21:34:39.728Z,21.50
2022-09-14T21:37:10.009Z,21.25
2022-09-14T21:39:41.541Z,26.00
2022-09-14T21:42:11.329Z,19.50
2022-09-14T21:44:40.748Z,25.75
2022-09-14T21:47:10.156Z,22.00
2022-09-14T21:49:39.816Z,26.25
2022-09-14T21:52:09.089Z,31.25
2022-09-14T21:54:40.101Z,27.50
2022-09-14T21:57:09.877Z,25.50
2022-09-14T21:59:39.454Z,27.75
2022-09-14T22:02:08.974Z,30.50
2022-09-14T22:04:38.418Z,30.00
2022-09-14T22:07:07.703Z,29.00
2022-09-14T22:09:36.995Z,31.50
2022-09-14T22:12:06.309Z,29.75
2022-09-14T22:14:36.198Z,29.25
2022-09-14T22:17:05.745Z,31.25
2022-09-14T22:19:36.025Z,32.00
2022-09-14T22:22:05.427Z,31.25
2022-09-14T22:24:38.305Z,31.25
2022-09-14T22:27:09.611Z,31.50
2022-09-14T22:29:39.874Z,33.00
2022-09-14T22:32:12.475Z,31.50
2022-09-14T22:34:46.527Z,34.00
2022-09-14T22:37:18.295Z,31.75
2022-09-14T22:39:48.357Z,32.75
2022-09-14T22:42:17.750Z,31.00
2022-09-14T22:44:47.059Z,32.25
2022-09-14T22:47:16.308Z,30.00
2022-09-14T22:49:48.635Z,32.75
2022-09-14T22:52:17.942Z,31.75
2022-09-14T22:54:47.363Z,31.00
2022-09-14T22:57:16.712Z,30.00
2022-09-14T22:59:45.982Z,32.00
2022-09-14T23:02:15.228Z,31.50
2022-09-14T23:04:44.630Z,32.25
2022-09-14T23:07:13.979Z,27.75
2022-09-14T23:09:43.402Z,32.50
2022-09-14T23:12:12.760Z,31.25
2022-09-14T23:14:42.006Z,31.00
2022-09-14T23:17:11.866Z,31.75
2022-09-14T23:19:41.129Z,31.25
2022-09-14T23:22:10.472Z,29.25
2022-09-14T23:24:39.842Z,29.50
2022-09-14T23:27:09.120Z,31.00
2022-09-14T23:29:38.359Z,31.50
2022-09-14T23:32:07.701Z,30.25
2022-09-14T23:34:37.045Z,29.50
2022-09-14T23:37:06.302Z,30.00
2022-09-14T23:39:35.580Z,29.25
2022-09-14T23:42:05.522Z,29.50
2022-09-14T23:44:34.980Z,33.75
2022-09-14T23:47:04.227Z,31.25
2022-09-14T23:49:34.473Z,34.00
2022-09-14T23:52:03.968Z,32.00
2022-09-14T23:54:33.848Z,31.00
2022-09-14T23:57:03.284Z,33.25
2022-09-14T23:59:33.713Z,34.00
